sensor_id;sensor_type;location;lat;lon;timestamp;pressure;altitude;pressure_sealevel;temperature;humidity
58955;BME280;45815;52.334;5.024;2023-04-06T00:01:16;101829.72;;;5.32;100.00
58955;BME280;45815;52.334;5.024;2023-04-06T00:03:42;101837.50;;;5.32;100.00
58955;BME280;45815;52.334;5.024;2023-04-06T00:06:07;101833.81;;;5.28;100.00
58955;BME280;45815;52.334;5.024;2023-04-06T00:08:32;101828.56;;;5.27;100.00
58955;BME280;45815;52.334;5.024;2023-04-06T00:10:58;101831.06;;;5.25;100.00
58955;BME280;45815;52.334;5.024;2023-04-06T00:13:23;101826.75;;;5.26;100.00
58955;BME280;45815;52.334;5.024;2023-04-06T00:15:49;101829.28;;;5.24;100.00
58955;BME280;45815;52.334;5.024;2023-04-06T00:18:14;101829.28;;;5.24;100.00
58955;BME280;45815;52.334;5.024;2023-04-06T00:20:39;101823.88;;;5.21;100.00
58955;BME280;45815;52.334;5.024;2023-04-06T00:23:05;101818.69;;;5.21;100.00
58955;BME280;45815;52.334;5.024;2023-04-06T00:25:31;101818.88;;;5.24;100.00
58955;BME280;45815;52.334;5.024;2023-04-06T00:27:56;101811.84;;;5.23;100.00
58955;BME280;45815;52.334;5.024;2023-04-06T00:30:21;101810.97;;;5.23;100.00
58955;BME280;45815;52.334;5.024;2023-04-06T00:32:48;101811.06;;;5.24;100.00
58955;BME280;45815;52.334;5.024;2023-04-06T00:35:13;101810.06;;;5.22;100.00
58955;BME280;45815;52.334;5.024;2023-04-06T00:37:40;101810.06;;;5.22;100.00
58955;BME280;45815;52.334;5.024;2023-04-06T00:40:06;101799.66;;;5.22;100.00
58955;BME280;45815;52.334;5.024;2023-04-06T00:42:31;101797.84;;;5.21;100.00
58955;BME280;45815;52.334;5.024;2023-04-06T00:44:58;101798.84;;;5.23;100.00
58955;BME280;45815;52.334;5.024;2023-04-06T00:47:24;101794.63;;;5.25;100.00
58955;BME280;45815;52.334;5.024;2023-04-06T00:49:51;101765.47;;;5.16;100.00
58955;BME280;45815;52.334;5.024;2023-04-06T00:52:17;101782.44;;;5.24;100.00
58955;BME280;45815;52.334;5.024;2023-04-06T00:54:45;101778.19;;;5.26;100.00
58955;BME280;45815;52.334;5.024;2023-04-06T00:57:12;101779.16;;;5.28;100.00
58955;BME280;45815;52.334;5.024;2023-04-06T00:59:39;101768.59;;;5.25;100.00
58955;BME280;45815;52.334;5.024;2023-04-06T01:02:08;101772.34;;;5.31;100.00
58955;BME280;45815;52.334;5.024;2023-04-06T01:04:40;101768.75;;;5.28;100.00
58955;BME280;45815;52.334;5.024;2023-04-06T01:07:10;101767.97;;;5.29;100.00
58955;BME280;45815;52.334;5.024;2023-04-06T01:09:43;101758.34;;;5.28;100.00
58955;BME280;45815;52.334;5.024;2023-04-06T01:12:16;101755.75;;;5.28;100.00
58955;BME280;45815;52.334;5.024;2023-04-06T01:14:42;101754.94;;;5.29;100.00
58955;BME280;45815;52.334;5.024;2023-04-06T01:17:07;101754.03;;;5.29;100.00
58955;BME280;45815;52.334;5.024;2023-04-06T01:19:33;101748.13;;;5.32;100.00
58955;BME280;45815;52.334;5.024;2023-04-06T01:21:59;101748.13;;;5.32;100.00
58955;BME280;45815;52.334;5.024;2023-04-06T01:24:30;101747.28;;;5.33;100.00
58955;BME280;45815;52.334;5.024;2023-04-06T01:27:15;101744.78;;;5.34;100.00
58955;BME280;45815;52.334;5.024;2023-04-06T01:30:01;101745.78;;;5.36;100.00
58955;BME280;45815;52.334;5.024;2023-04-06T01:32:40;101732.66;;;5.35;100.00
58955;BME280;45815;52.334;5.024;2023-04-06T01:35:06;101737.47;;;5.43;100.00
58955;BME280;45815;52.334;5.024;2023-04-06T01:37:36;101735.13;;;5.48;100.00
58955;BME280;45815;52.334;5.024;2023-04-06T01:40:04;101730.06;;;5.51;100.00
58955;BME280;45815;52.334;5.024;2023-04-06T01:42:56;101730.22;;;5.54;100.00
58955;BME280;45815;52.334;5.024;2023-04-06T01:45:30;101721.63;;;5.55;100.00
58955;BME280;45815;52.334;5.024;2023-04-06T01:48:03;101723.41;;;5.56;100.00
58955;BME280;45815;52.334;5.024;2023-04-06T01:50:28;101717.38;;;5.57;100.00
58955;BME280;45815;52.334;5.024;2023-04-06T01:52:54;101715.59;;;5.56;100.00
58955;BME280;45815;52.334;5.024;2023-04-06T01:55:20;101719.16;;;5.58;100.00
58955;BME280;45815;52.334;5.024;2023-04-06T01:58:11;101723.53;;;5.59;100.00
58955;BME280;45815;52.334;5.024;2023-04-06T02:00:38;101714.19;;;5.63;100.00
58955;BME280;45815;52.334;5.024;2023-04-06T02:03:03;101710.72;;;5.62;100.00
58955;BME280;45815;52.334;5.024;2023-04-06T02:05:31;101717.69;;;5.63;100.00
58955;BME280;45815;52.334;5.024;2023-04-06T02:07:59;101707.19;;;5.62;100.00
58955;BME280;45815;52.334;5.024;2023-04-06T02:10:31;101695.16;;;5.64;100.00
58955;BME280;45815;52.334;5.024;2023-04-06T02:13:01;101694.41;;;5.66;100.00
58955;BME280;45815;52.334;5.024;2023-04-06T02:15:27;101688.31;;;5.66;100.00
58955;BME280;45815;52.334;5.024;2023-04-06T02:17:52;101675.78;;;5.59;100.00
58955;BME280;45815;52.334;5.024;2023-04-06T02:20:18;101691.00;;;5.67;100.00
58955;BME280;45815;52.334;5.024;2023-04-06T02:22:44;101687.41;;;5.65;100.00
58955;BME280;45815;52.334;5.024;2023-04-06T02:25:10;101682.38;;;5.68;100.00
58955;BME280;45815;52.334;5.024;2023-04-06T02:27:35;101673.66;;;5.68;100.00
58955;BME280;45815;52.334;5.024;2023-04-06T02:30:02;101681.47;;;5.68;100.00
58955;BME280;45815;52.334;5.024;2023-04-06T02:32:28;101688.50;;;5.69;100.00
58955;BME280;45815;52.334;5.024;2023-04-06T02:34:53;101675.53;;;5.70;100.00
58955;BME280;45815;52.334;5.024;2023-04-06T02:37:20;101659.41;;;5.61;100.00
58955;BME280;45815;52.334;5.024;2023-04-06T02:39:46;101677.16;;;5.68;100.00
58955;BME280;45815;52.334;5.024;2023-04-06T02:42:12;101676.28;;;5.68;100.00
58955;BME280;45815;52.334;5.024;2023-04-06T02:44:37;101673.81;;;5.71;100.00
58955;BME280;45815;52.334;5.024;2023-04-06T02:47:02;101666.91;;;5.71;100.00
58955;BME280;45815;52.334;5.024;2023-04-06T02:49:28;101661.72;;;5.71;100.00
58955;BME280;45815;52.334;5.024;2023-04-06T02:51:56;101652.09;;;5.70;100.00
58955;BME280;45815;52.334;5.024;2023-04-06T02:54:25;101658.28;;;5.72;100.00
58955;BME280;45815;52.334;5.024;2023-04-06T02:56:51;101655.81;;;5.76;100.00
58955;BME280;45815;52.334;5.024;2023-04-06T02:59:17;101648.00;;;5.76;100.00
58955;BME280;45815;52.334;5.024;2023-04-06T03:01:49;101651.44;;;5.75;100.00
58955;BME280;45815;52.334;5.024;2023-04-06T03:04:14;101641.84;;;5.74;100.00
58955;BME280;45815;52.334;5.024;2023-04-06T03:06:40;101639.25;;;5.74;100.00
58955;BME280;45815;52.334;5.024;2023-04-06T03:09:16;101637.53;;;5.74;100.00
58955;BME280;45815;52.334;5.024;2023-04-06T03:11:43;101640.19;;;5.76;100.00
58955;BME280;45815;52.334;5.024;2023-04-06T03:14:08;101637.59;;;5.76;100.00
58955;BME280;45815;52.334;5.024;2023-04-06T03:16:34;101637.59;;;5.76;100.00
58955;BME280;45815;52.334;5.024;2023-04-06T03:19:00;101630.69;;;5.76;100.00
58955;BME280;45815;52.334;5.024;2023-04-06T03:21:26;101636.69;;;5.75;100.00
58955;BME280;45815;52.334;5.024;2023-04-06T03:23:52;101623.63;;;5.74;100.00
58955;BME280;45815;52.334;5.024;2023-04-06T03:26:18;101627.09;;;5.74;100.00
58955;BME280;45815;52.334;5.024;2023-04-06T03:28:44;101627.09;;;5.74;100.00
58955;BME280;45815;52.334;5.024;2023-04-06T03:31:09;101626.22;;;5.74;100.00
58955;BME280;45815;52.334;5.024;2023-04-06T03:34:04;101617.34;;;5.70;100.00
58955;BME280;45815;52.334;5.024;2023-04-06T03:36:32;101620.03;;;5.71;100.00
58955;BME280;45815;52.334;5.024;2023-04-06T03:38:58;101607.00;;;5.71;100.00
58955;BME280;45815;52.334;5.024;2023-04-06T03:41:23;101615.63;;;5.70;100.00
58955;BME280;45815;52.334;5.024;2023-04-06T03:43:58;101611.25;;;5.69;100.00
58955;BME280;45815;52.334;5.024;2023-04-06T03:46:24;101610.34;;;5.69;100.00
58955;BME280;45815;52.334;5.024;2023-04-06T03:48:52;101615.56;;;5.69;100.00
58955;BME280;45815;52.334;5.024;2023-04-06T03:51:20;101609.63;;;5.71;100.00
58955;BME280;45815;52.334;5.024;2023-04-06T03:53:46;101606.03;;;5.69;100.00
58955;BME280;45815;52.334;5.024;2023-04-06T03:56:13;101594.56;;;5.66;100.00
58955;BME280;45815;52.334;5.024;2023-04-06T03:58:38;101604.22;;;5.68;100.00
58955;BME280;45815;52.334;5.024;2023-04-06T04:01:03;101597.38;;;5.70;100.00
58955;BME280;45815;52.334;5.024;2023-04-06T04:03:29;101600.00;;;5.70;100.00
58955;BME280;45815;52.334;5.024;2023-04-06T04:05:54;101597.38;;;5.70;100.00
58955;BME280;45815;52.334;5.024;2023-04-06T04:08:23;101600.81;;;5.69;100.00
58955;BME280;45815;52.334;5.024;2023-04-06T04:10:48;101600.88;;;5.71;100.00
58955;BME280;45815;52.334;5.024;2023-04-06T04:13:14;101591.16;;;5.67;100.00
58955;BME280;45815;52.334;5.024;2023-04-06T04:15:42;101595.66;;;5.71;100.00
58955;BME280;45815;52.334;5.024;2023-04-06T04:18:08;101597.56;;;5.74;100.00
58955;BME280;45815;52.334;5.024;2023-04-06T04:20:33;101597.72;;;5.77;100.00
58955;BME280;45815;52.334;5.024;2023-04-06T04:22:59;101596.09;;;5.79;100.00
58955;BME280;45815;52.334;5.024;2023-04-06T04:25:25;101596.97;;;5.79;100.00
58955;BME280;45815;52.334;5.024;2023-04-06T04:27:50;101593.63;;;5.82;100.00
58955;BME280;45815;52.334;5.024;2023-04-06T04:30:17;101601.44;;;5.82;100.00
58955;BME280;45815;52.334;5.024;2023-04-06T04:32:42;101591.16;;;5.85;100.00
58955;BME280;45815;52.334;5.024;2023-04-06T04:35:09;101587.00;;;5.88;100.00
58955;BME280;45815;52.334;5.024;2023-04-06T04:37:38;101590.72;;;5.93;100.00
58955;BME280;45815;52.334;5.024;2023-04-06T04:40:04;101586.53;;;5.96;100.00
58955;BME280;45815;52.334;5.024;2023-04-06T04:42:37;101586.66;;;5.99;100.00
58955;BME280;45815;52.334;5.024;2023-04-06T04:45:05;101585.94;;;6.01;100.00
58955;BME280;45815;52.334;5.024;2023-04-06T04:47:37;101582.53;;;6.02;100.00
58955;BME280;45815;52.334;5.024;2023-04-06T04:50:04;101575.59;;;6.03;100.00
58955;BME280;45815;52.334;5.024;2023-04-06T04:52:30;101576.66;;;6.06;100.00
58955;BME280;45815;52.334;5.024;2023-04-06T04:55:06;101575.91;;;6.09;100.00
58955;BME280;45815;52.334;5.024;2023-04-06T04:57:32;101571.72;;;6.12;100.00
58955;BME280;45815;52.334;5.024;2023-04-06T04:59:57;101573.53;;;6.13;100.00
58955;BME280;45815;52.334;5.024;2023-04-06T05:02:23;101564.41;;;6.05;100.00
58955;BME280;45815;52.334;5.024;2023-04-06T05:05:08;101566.38;;;6.09;100.00
58955;BME280;45815;52.334;5.024;2023-04-06T05:07:34;101569.94;;;6.11;100.00
58955;BME280;45815;52.334;5.024;2023-04-06T05:10:00;101576.78;;;6.09;100.00
58955;BME280;45815;52.334;5.024;2023-04-06T05:12:29;101569.78;;;6.08;100.00
58955;BME280;45815;52.334;5.024;2023-04-06T05:15:04;101563.66;;;6.08;100.00
58955;BME280;45815;52.334;5.024;2023-04-06T05:17:29;101572.31;;;6.07;100.00
58955;BME280;45815;52.334;5.024;2023-04-06T05:19:55;101559.22;;;6.05;100.00
58955;BME280;45815;52.334;5.024;2023-04-06T05:22:23;101569.84;;;6.10;100.00
58955;BME280;45815;52.334;5.024;2023-04-06T05:24:58;101557.72;;;6.10;100.00
58955;BME280;45815;52.334;5.024;2023-04-06T05:27:24;101566.50;;;6.12;100.00
58955;BME280;45815;52.334;5.024;2023-04-06T05:29:50;101568.09;;;6.09;100.00
58955;BME280;45815;52.334;5.024;2023-04-06T05:32:16;101561.72;;;6.04;100.00
58955;BME280;45815;52.334;5.024;2023-04-06T05:34:43;101568.75;;;6.05;100.00
58955;BME280;45815;52.334;5.024;2023-04-06T05:37:09;101564.41;;;6.05;100.00
58955;BME280;45815;52.334;5.024;2023-04-06T05:39:35;101559.44;;;6.10;100.00
58955;BME280;45815;52.334;5.024;2023-04-06T05:42:04;101566.50;;;6.12;100.00
58955;BME280;45815;52.334;5.024;2023-04-06T05:44:43;101561.38;;;6.14;100.00
58955;BME280;45815;52.334;5.024;2023-04-06T05:47:12;101575.28;;;6.15;100.00
58955;BME280;45815;52.334;5.024;2023-04-06T05:49:41;101567.63;;;6.18;100.00
58955;BME280;45815;52.334;5.024;2023-04-06T05:52:12;101563.25;;;6.17;100.00
58955;BME280;45815;52.334;5.024;2023-04-06T05:54:38;101553.47;;;6.12;100.00
58955;BME280;45815;52.334;5.024;2023-04-06T05:57:03;101551.63;;;6.10;100.00
58955;BME280;45815;52.334;5.024;2023-04-06T05:59:30;101560.84;;;6.21;100.00
58955;BME280;45815;52.334;5.024;2023-04-06T06:01:56;101567.84;;;6.22;100.00
58955;BME280;45815;52.334;5.024;2023-04-06T06:04:22;101565.31;;;6.24;100.00
58955;BME280;45815;52.334;5.024;2023-04-06T06:06:51;101566.34;;;6.27;100.00
58955;BME280;45815;52.334;5.024;2023-04-06T06:09:25;101567.41;;;6.31;100.00
58955;BME280;45815;52.334;5.024;2023-04-06T06:12:10;101571.94;;;6.35;100.00
58955;BME280;45815;52.334;5.024;2023-04-06T06:14:35;101563.59;;;6.42;100.00
58955;BME280;45815;52.334;5.024;2023-04-06T06:17:01;101576.91;;;6.48;100.00
58955;BME280;45815;52.334;5.024;2023-04-06T06:19:27;101566.78;;;6.54;100.00
58955;BME280;45815;52.334;5.024;2023-04-06T06:21:56;101563.75;;;6.65;100.00
58955;BME280;45815;52.334;5.024;2023-04-06T06:24:22;101567.72;;;6.74;100.00
58955;BME280;45815;52.334;5.024;2023-04-06T06:26:47;101561.88;;;6.80;100.00
58955;BME280;45815;52.334;5.024;2023-04-06T06:29:15;101564.78;;;6.86;100.00
58955;BME280;45815;52.334;5.024;2023-04-06T06:31:41;101562.50;;;6.94;100.00
58955;BME280;45815;52.334;5.024;2023-04-06T06:34:06;101569.69;;;7.00;100.00
58955;BME280;45815;52.334;5.024;2023-04-06T06:36:34;101565.53;;;7.03;100.00
58955;BME280;45815;52.334;5.024;2023-04-06T06:39:01;101565.53;;;7.03;100.00
58955;BME280;45815;52.334;5.024;2023-04-06T06:41:28;101571.09;;;7.11;100.00
58955;BME280;45815;52.334;5.024;2023-04-06T06:43:54;101558.88;;;7.10;100.00
58955;BME280;45815;52.334;5.024;2023-04-06T06:46:20;101565.78;;;7.09;100.00
58955;BME280;45815;52.334;5.024;2023-04-06T06:48:45;101567.66;;;7.12;100.00
58955;BME280;45815;52.334;5.024;2023-04-06T06:51:11;101556.47;;;7.14;100.00
58955;BME280;45815;52.334;5.024;2023-04-06T06:53:39;101556.47;;;7.14;100.00
58955;BME280;45815;52.334;5.024;2023-04-06T06:56:04;101560.84;;;7.15;100.00
58955;BME280;45815;52.334;5.024;2023-04-06T06:58:30;101553.13;;;7.18;100.00
58955;BME280;45815;52.334;5.024;2023-04-06T07:00:57;101556.78;;;7.22;100.00
58955;BME280;45815;52.334;5.024;2023-04-06T07:03:23;101555.28;;;7.27;100.00
58955;BME280;45815;52.334;5.024;2023-04-06T07:05:49;101554.59;;;7.31;100.00
58955;BME280;45815;52.334;5.024;2023-04-06T07:08:23;101556.38;;;7.32;100.00
58955;BME280;45815;52.334;5.024;2023-04-06T07:10:50;101542.53;;;7.35;100.00
58955;BME280;45815;52.334;5.024;2023-04-06T07:13:18;101537.53;;;7.39;100.00
58955;BME280;45815;52.334;5.024;2023-04-06T07:15:50;101542.19;;;7.47;100.00
58955;BME280;45815;52.334;5.024;2023-04-06T07:18:16;101536.34;;;7.52;100.00
58955;BME280;45815;52.334;5.024;2023-04-06T07:20:42;101534.88;;;7.59;100.00
58955;BME280;45815;52.334;5.024;2023-04-06T07:23:08;101540.34;;;7.65;100.00
58955;BME280;45815;52.334;5.024;2023-04-06T07:25:33;101537.94;;;7.70;100.00
58955;BME280;45815;52.334;5.024;2023-04-06T07:27:59;101535.38;;;7.71;100.00
58955;BME280;45815;52.334;5.024;2023-04-06T07:30:25;101531.25;;;7.76;100.00
58955;BME280;45815;52.334;5.024;2023-04-06T07:32:53;101530.56;;;7.80;100.00
58955;BME280;45815;52.334;5.024;2023-04-06T07:35:25;101525.44;;;7.83;100.00
58955;BME280;45815;52.334;5.024;2023-04-06T07:37:52;101531.63;;;7.86;100.00
58955;BME280;45815;52.334;5.024;2023-04-06T07:40:18;101534.50;;;7.92;100.00
58955;BME280;45815;52.334;5.024;2023-04-06T07:42:45;101531.31;;;7.99;100.00
58955;BME280;45815;52.334;5.024;2023-04-06T07:45:11;101535.94;;;8.06;100.00
58955;BME280;45815;52.334;5.024;2023-04-06T07:47:36;101528.34;;;8.12;100.00
58955;BME280;45815;52.334;5.024;2023-04-06T07:50:02;101545.81;;;8.13;100.00
58955;BME280;45815;52.334;5.024;2023-04-06T07:52:28;101534.53;;;8.14;100.00
58955;BME280;45815;52.334;5.024;2023-04-06T07:54:54;101537.31;;;8.19;100.00
58955;BME280;45815;52.334;5.024;2023-04-06T07:57:20;101535.63;;;8.19;100.00
58955;BME280;45815;52.334;5.024;2023-04-06T07:59:46;101519.69;;;8.13;100.00
58955;BME280;45815;52.334;5.024;2023-04-06T08:02:11;101533.94;;;8.21;100.00
58955;BME280;45815;52.334;5.024;2023-04-06T08:04:36;101517.16;;;8.16;100.00
58955;BME280;45815;52.334;5.024;2023-04-06T08:07:02;101528.19;;;8.30;100.00
58955;BME280;45815;52.334;5.024;2023-04-06T08:09:27;101527.66;;;8.39;100.00
58955;BME280;45815;52.334;5.024;2023-04-06T08:11:53;101513.63;;;8.37;100.00
58955;BME280;45815;52.334;5.024;2023-04-06T08:14:18;101520.91;;;8.44;100.00
58955;BME280;45815;52.334;5.024;2023-04-06T08:16:45;101528.22;;;8.53;100.00
58955;BME280;45815;52.334;5.024;2023-04-06T08:19:10;101523.03;;;8.54;100.00
58955;BME280;45815;52.334;5.024;2023-04-06T08:21:36;101524.94;;;8.58;100.00
58955;BME280;45815;52.334;5.024;2023-04-06T08:24:01;101531.66;;;8.74;100.00
58955;BME280;45815;52.334;5.024;2023-04-06T08:26:27;101528.44;;;8.81;100.00
58955;BME280;45815;52.334;5.024;2023-04-06T08:28:53;101527.66;;;8.84;100.00
58955;BME280;45815;52.334;5.024;2023-04-06T08:31:18;101534.88;;;8.91;100.00
58955;BME280;45815;52.334;5.024;2023-04-06T08:33:44;101526.41;;;8.98;100.00
58955;BME280;45815;52.334;5.024;2023-04-06T08:36:14;101525.88;;;9.07;100.00
58955;BME280;45815;52.334;5.024;2023-04-06T08:38:40;101521.63;;;9.11;100.00
58955;BME280;45815;52.334;5.024;2023-04-06T08:41:10;101514.84;;;9.16;100.00
58955;BME280;45815;52.334;5.024;2023-04-06T08:43:42;101515.03;;;9.22;100.00
58955;BME280;45815;52.334;5.024;2023-04-06T08:46:09;101515.09;;;9.23;100.00
58955;BME280;45815;52.334;5.024;2023-04-06T08:48:36;101508.97;;;9.23;100.00
58955;BME280;45815;52.334;5.024;2023-04-06T08:51:01;101514.66;;;9.35;100.00
58955;BME280;45815;52.334;5.024;2023-04-06T08:53:27;101519.31;;;9.44;100.00
58955;BME280;45815;52.334;5.024;2023-04-06T08:55:54;101505.91;;;9.35;100.00
58955;BME280;45815;52.334;5.024;2023-04-06T08:58:21;101529.63;;;9.39;100.00
58955;BME280;45815;52.334;5.024;2023-04-06T09:00:48;101524.59;;;9.45;100.00
58955;BME280;45815;52.334;5.024;2023-04-06T09:03:14;101516.00;;;9.49;100.00
58955;BME280;45815;52.334;5.024;2023-04-06T09:05:40;101521.47;;;9.56;100.00
58955;BME280;45815;52.334;5.024;2023-04-06T09:08:06;101516.53;;;9.65;100.00
58955;BME280;45815;52.334;5.024;2023-04-06T09:10:32;101525.22;;;9.64;100.00
58955;BME280;45815;52.334;5.024;2023-04-06T09:13:08;101517.50;;;9.67;100.00
58955;BME280;45815;52.334;5.024;2023-04-06T09:15:34;101523.00;;;9.76;100.00
58955;BME280;45815;52.334;5.024;2023-04-06T09:18:00;101523.94;;;9.78;100.00
58955;BME280;45815;52.334;5.024;2023-04-06T09:20:26;101525.03;;;9.83;100.00
58955;BME280;45815;52.334;5.024;2023-04-06T09:22:54;101518.88;;;9.83;100.00
58955;BME280;45815;52.334;5.024;2023-04-06T09:25:21;101522.25;;;9.79;100.00
58955;BME280;45815;52.334;5.024;2023-04-06T09:27:49;101523.22;;;9.82;100.00
58955;BME280;45815;52.334;5.024;2023-04-06T09:30:23;101532.13;;;9.87;100.00
58955;BME280;45815;52.334;5.024;2023-04-06T09:32:51;101519.13;;;9.90;100.00
58955;BME280;45815;52.334;5.024;2023-04-06T09:35:18;101527.72;;;9.86;100.00
58955;BME280;45815;52.334;5.024;2023-04-06T09:37:46;101525.06;;;9.85;100.00
58955;BME280;45815;52.334;5.024;2023-04-06T09:40:12;101530.25;;;9.83;100.00
58955;BME280;45815;52.334;5.024;2023-04-06T09:42:40;101517.03;;;9.80;100.00
58955;BME280;45815;52.334;5.024;2023-04-06T09:45:06;101526.94;;;9.89;100.00
58955;BME280;45815;52.334;5.024;2023-04-06T09:47:32;101527.44;;;9.77;100.00
58955;BME280;45815;52.334;5.024;2023-04-06T09:50:02;101524.66;;;9.72;100.00
58955;BME280;45815;52.334;5.024;2023-04-06T09:52:33;101532.59;;;9.74;100.00
58955;BME280;45815;52.334;5.024;2023-04-06T09:55:08;101520.88;;;9.64;100.00
58955;BME280;45815;52.334;5.024;2023-04-06T09:57:57;101525.69;;;9.78;100.00
58955;BME280;45815;52.334;5.024;2023-04-06T10:00:25;101531.00;;;9.79;100.00
58955;BME280;45815;52.334;5.024;2023-04-06T10:06:01;101522.84;;;9.71;100.00
58955;BME280;45815;52.334;5.024;2023-04-06T10:08:31;101523.78;;;9.72;100.00
58955;BME280;45815;52.334;5.024;2023-04-06T10:10:58;101524.56;;;9.69;100.00
58955;BME280;45815;52.334;5.024;2023-04-06T10:13:24;101520.50;;;9.79;100.00
58955;BME280;45815;52.334;5.024;2023-04-06T10:15:51;101521.31;;;9.77;100.00
58955;BME280;45815;52.334;5.024;2023-04-06T10:18:17;101523.06;;;9.78;100.00
58955;BME280;45815;52.334;5.024;2023-04-06T10:23:13;101520.09;;;9.67;100.00
58955;BME280;45815;52.334;5.024;2023-04-06T10:25:55;101512.84;;;9.60;100.00
58955;BME280;45815;52.334;5.024;2023-04-06T10:28:21;101517.50;;;9.67;100.00
58955;BME280;45815;52.334;5.024;2023-04-06T10:30:46;101518.31;;;9.66;100.00
58955;BME280;45815;52.334;5.024;2023-04-06T10:33:13;101515.06;;;9.73;100.00
58955;BME280;45815;52.334;5.024;2023-04-06T10:35:39;101514.06;;;9.69;100.00
58955;BME280;45815;52.334;5.024;2023-04-06T10:38:04;101506.16;;;9.68;100.00
58955;BME280;45815;52.334;5.024;2023-04-06T10:40:30;101512.19;;;9.65;100.00
58955;BME280;45815;52.334;5.024;2023-04-06T10:43:10;101512.66;;;9.54;100.00
58955;BME280;45815;52.334;5.024;2023-04-06T10:45:36;101501.28;;;9.53;100.00
58955;BME280;45815;52.334;5.024;2023-04-06T10:48:16;101519.56;;;9.51;100.00
58955;BME280;45815;52.334;5.024;2023-04-06T10:50:47;101505.63;;;9.52;100.00
58955;BME280;45815;52.334;5.024;2023-04-06T10:53:21;101490.28;;;9.38;100.00
58955;BME280;45815;52.334;5.024;2023-04-06T10:55:47;101497.44;;;9.43;100.00
58955;BME280;45815;52.334;5.024;2023-04-06T10:58:14;101491.38;;;9.44;100.00
58955;BME280;45815;52.334;5.024;2023-04-06T11:00:47;101489.59;;;9.43;100.00
58955;BME280;45815;52.334;5.024;2023-04-06T11:03:13;101496.69;;;9.46;100.00
58955;BME280;45815;52.334;5.024;2023-04-06T11:05:46;101486.22;;;9.47;100.00
58955;BME280;45815;52.334;5.024;2023-04-06T11:08:32;101490.38;;;9.41;100.00
58955;BME280;45815;52.334;5.024;2023-04-06T11:11:13;101482.63;;;9.44;100.00
58955;BME280;45815;52.334;5.024;2023-04-06T11:16:20;101486.13;;;9.44;100.00
58955;BME280;45815;52.334;5.024;2023-04-06T11:18:57;101476.59;;;9.46;100.00
58955;BME280;45815;52.334;5.024;2023-04-06T11:21:44;101470.66;;;9.52;100.00
58955;BME280;45815;52.334;5.024;2023-04-06T11:24:13;101469.88;;;9.55;100.00
58955;BME280;45815;52.334;5.024;2023-04-06T11:26:40;101465.44;;;9.52;100.00
58955;BME280;45815;52.334;5.024;2023-04-06T11:29:06;101476.59;;;9.46;100.00
58955;BME280;45815;52.334;5.024;2023-04-06T11:31:38;101475.56;;;9.41;100.00
58955;BME280;45815;52.334;5.024;2023-04-06T11:34:08;101468.59;;;9.16;100.00
58955;BME280;45815;52.334;5.024;2023-04-06T11:36:34;101461.22;;;9.30;100.00
58955;BME280;45815;52.334;5.024;2023-04-06T11:39:03;101462.00;;;9.27;100.00
58955;BME280;45815;52.334;5.024;2023-04-06T11:41:28;101462.09;;;9.30;100.00
58955;BME280;45815;52.334;5.024;2023-04-06T11:43:55;101464.56;;;9.26;100.00
58955;BME280;45815;52.334;5.024;2023-04-06T11:46:21;101469.69;;;9.23;100.00
58955;BME280;45815;52.334;5.024;2023-04-06T11:48:46;101457.38;;;9.20;100.00
58955;BME280;45815;52.334;5.024;2023-04-06T11:51:12;101447.94;;;9.25;100.00
58955;BME280;45815;52.334;5.024;2023-04-06T11:53:44;101454.75;;;9.20;100.00
58955;BME280;45815;52.334;5.024;2023-04-06T11:56:25;101454.88;;;9.23;100.00
58955;BME280;45815;52.334;5.024;2023-04-06T11:58:52;101457.63;;;9.28;100.00
58955;BME280;45815;52.334;5.024;2023-04-06T12:01:17;101456.75;;;9.27;100.00
58955;BME280;45815;52.334;5.024;2023-04-06T12:03:43;101447.06;;;9.25;100.00
58955;BME280;45815;52.334;5.024;2023-04-06T12:06:08;101446.94;;;9.22;100.00
58955;BME280;45815;52.334;5.024;2023-04-06T12:08:33;101453.06;;;9.22;100.00
58955;BME280;45815;52.334;5.024;2023-04-06T12:10:59;101448.63;;;9.20;100.00
58955;BME280;45815;52.334;5.024;2023-04-06T12:13:24;101450.25;;;9.16;100.00
58955;BME280;45815;52.334;5.024;2023-04-06T12:15:50;101446.13;;;9.23;100.00
58955;BME280;45815;52.334;5.024;2023-04-06T12:18:15;101454.94;;;9.26;100.00
58955;BME280;45815;52.334;5.024;2023-04-06T12:20:41;101447.94;;;9.25;100.00
58955;BME280;45815;52.334;5.024;2023-04-06T12:23:06;101441.69;;;9.22;100.00
58955;BME280;45815;52.334;5.024;2023-04-06T12:25:32;101442.50;;;9.19;100.00
58955;BME280;45815;52.334;5.024;2023-04-06T12:27:57;101440.03;;;9.24;100.00
58955;BME280;45815;52.334;5.024;2023-04-06T12:30:23;101439.00;;;9.19;100.00
58955;BME280;45815;52.334;5.024;2023-04-06T12:32:48;101440.03;;;9.24;100.00
58955;BME280;45815;52.334;5.024;2023-04-06T12:35:15;101436.16;;;9.13;100.00
58955;BME280;45815;52.334;5.024;2023-04-06T12:37:41;101438.13;;;9.20;100.00
58955;BME280;45815;52.334;5.024;2023-04-06T12:40:07;101441.59;;;9.19;100.00
58955;BME280;45815;52.334;5.024;2023-04-06T12:42:35;101438.81;;;9.14;100.00
58955;BME280;45815;52.334;5.024;2023-04-06T12:45:01;101437.88;;;9.12;100.00
58955;BME280;45815;52.334;5.024;2023-04-06T12:47:26;101437.94;;;9.14;100.00
58955;BME280;45815;52.334;5.024;2023-04-06T12:49:53;101437.16;;;9.16;100.00
58955;BME280;45815;52.334;5.024;2023-04-06T12:52:19;101438.03;;;9.17;100.00
58955;BME280;45815;52.334;5.024;2023-04-06T12:54:44;101437.41;;;9.24;100.00
58955;BME280;45815;52.334;5.024;2023-04-06T12:57:10;101430.50;;;9.26;100.00
58955;BME280;45815;52.334;5.024;2023-04-06T12:59:35;101421.34;;;9.13;100.00
58955;BME280;45815;52.334;5.024;2023-04-06T13:02:03;101419.56;;;9.12;100.00